Time;durP1;ratioP1;P1;durP2;ratioP2;P2;SDS_P1;SDS_P2;PMS_P1;PMS_P2;Temp;Humidity;BMP_temperature;BMP_pressure;BME280_temperature;BME280_humidity;BME280_pressure;Samples;Min_cycle;Max_cycle;Signal;HPM_P1;HPM_P2
2023/09/06 00:01:46;;;;;;;14.23;12.88;;;18.30;93.00;;;;;;5037198;28;20413;-47
2023/09/06 00:04:13;;;;;;;14.45;13.15;;;18.30;93.10;;;;;;5035802;28;20036;-46
2023/09/06 00:06:40;;;;;;;12.90;11.70;;;18.30;93.10;;;;;;5053773;28;20342;-46
2023/09/06 00:09:05;;;;;;;14.68;13.27;;;18.20;93.10;;;;;;5053909;28;20021;-47
2023/09/06 00:11:33;;;;;;;14.88;13.32;;;18.20;93.20;;;;;;5041531;28;20080;-45
2023/09/06 00:14:03;;;;;;;16.95;13.75;;;18.20;93.10;;;;;;5034103;28;20018;-46
2023/09/06 00:16:30;;;;;;;15.52;13.98;;;18.10;93.10;;;;;;5034003;28;20431;-45
2023/09/06 00:18:59;;;;;;;15.38;13.85;;;18.10;93.10;;;;;;5033817;28;20099;-46
2023/09/06 00:21:27;;;;;;;16.23;14.70;;;18.10;93.10;;;;;;5015785;28;20052;-46
2023/09/06 00:23:58;;;;;;;14.45;13.05;;;18.00;93.20;;;;;;5033836;28;20036;-48
2023/09/06 00:26:26;;;;;;;16.23;12.48;;;18.00;93.10;;;;;;5049257;28;20108;-45
2023/09/06 00:28:57;;;;;;;11.48;10.38;;;17.90;93.10;;;;;;5035401;28;20036;-47
2023/09/06 00:31:24;;;;;;;14.77;13.27;;;17.90;93.10;;;;;;5035749;28;20104;-49
2023/09/06 00:33:51;;;;;;;14.88;13.48;;;17.90;93.10;;;;;;5041804;28;20061;-48
2023/09/06 00:36:18;;;;;;;15.43;13.93;;;17.80;93.10;;;;;;5033423;28;20033;-48
2023/09/06 00:38:45;;;;;;;15.55;14.02;;;17.80;93.10;;;;;;5015499;28;20099;-51
2023/09/06 00:41:12;;;;;;;15.20;13.70;;;17.80;93.10;;;;;;5033114;28;20021;-46
2023/09/06 00:43:39;;;;;;;14.18;12.88;;;17.80;93.10;;;;;;5033156;28;20528;-50
2023/09/06 00:46:07;;;;;;;16.23;14.82;;;17.80;93.10;;;;;;5015385;28;20108;-47
2023/09/06 00:48:36;;;;;;;14.80;13.40;;;17.70;93.10;;;;;;5033214;28;20037;-46
2023/09/06 00:51:06;;;;;;;14.65;13.18;;;17.70;93.10;;;;;;5033135;28;20056;-45
2023/09/06 00:53:33;;;;;;;14.63;13.23;;;17.70;93.20;;;;;;5033021;28;20029;-43
2023/09/06 00:56:03;;;;;;;14.48;12.95;;;17.60;93.20;;;;;;5033253;28;20446;-46
2023/09/06 00:58:30;;;;;;;14.02;12.63;;;17.60;93.20;;;;;;5031995;28;20130;-44
2023/09/06 01:00:57;;;;;;;12.55;11.30;;;17.60;93.20;;;;;;5032892;28;20163;-47
2023/09/06 01:03:24;;;;;;;13.93;12.60;;;17.60;93.20;;;;;;5032948;28;20140;-46
2023/09/06 01:06:06;;;;;;;14.05;12.65;;;17.60;93.20;;;;;;5015381;28;20371;-45
2023/09/06 01:08:46;;;;;;;13.65;12.38;;;17.50;93.30;;;;;;5032345;28;20048;-49
2023/09/06 01:11:21;;;;;;;14.98;13.48;;;17.50;93.30;;;;;;5032545;28;20014;-44
2023/09/06 01:13:50;;;;;;;14.32;13.02;;;17.50;93.30;;;;;;5052603;28;20025;-50
2023/09/06 01:16:29;;;;;;;14.23;12.85;;;17.50;93.30;;;;;;5047563;28;20447;-50
2023/09/06 01:18:56;;;;;;;15.60;12.80;;;17.50;93.30;;;;;;5032126;28;20431;-47
2023/09/06 01:21:32;;;;;;;16.95;15.25;;;17.50;93.50;;;;;;5032940;28;20083;-45
2023/09/06 01:24:00;;;;;;;18.80;16.90;;;17.50;93.50;;;;;;5045827;28;20021;-48
2023/09/06 01:26:31;;;;;;;19.95;18.02;;;17.50;93.50;;;;;;5035085;28;20024;-44
2023/09/06 01:28:58;;;;;;;19.50;17.73;;;17.50;93.50;;;;;;5052467;28;20059;-45
2023/09/06 01:31:27;;;;;;;18.08;16.38;;;17.40;93.50;;;;;;5048967;28;20308;-47
2023/09/06 01:33:59;;;;;;;16.60;15.10;;;17.40;93.60;;;;;;5032531;28;20461;-50
2023/09/06 01:36:26;;;;;;;21.45;18.77;;;17.40;93.60;;;;;;5032030;28;20111;-51
2023/09/06 01:38:53;;;;;;;22.00;19.20;;;17.40;93.80;;;;;;5031323;28;20090;-47
2023/09/06 01:41:20;;;;;;;23.05;20.80;;;17.50;93.90;;;;;;5032359;28;20078;-47
2023/09/06 01:43:50;;;;;;;22.42;20.05;;;17.50;94.00;;;;;;5032507;28;20026;-48
2023/09/06 01:46:16;;;;;;;;;;;17.60;94.10;;;;;;5038139;28;20568;-44
2023/09/06 01:48:43;;;;;;;19.80;17.77;;;17.60;94.20;;;;;;5052565;28;19966;-44
2023/09/06 01:51:10;;;;;;;22.08;19.88;;;17.60;94.30;;;;;;5034563;28;20077;-46
2023/09/06 01:53:38;;;;;;;19.65;17.65;;;17.70;94.30;;;;;;5052065;28;20028;-44
2023/09/06 01:56:07;;;;;;;20.92;18.83;;;17.60;94.30;;;;;;5040765;28;20037;-47
2023/09/06 01:58:35;;;;;;;22.58;20.10;;;17.70;94.30;;;;;;5046910;28;20024;-46
2023/09/06 02:01:03;;;;;;;21.40;19.35;;;17.70;94.30;;;;;;5034506;28;20017;-45
2023/09/06 02:03:33;;;;;;;22.85;20.17;;;17.70;94.30;;;;;;5041924;28;20049;-47
2023/09/06 02:06:05;;;;;;;20.50;18.63;;;17.70;94.40;;;;;;5032327;28;20075;-47
2023/09/06 02:08:33;;;;;;;19.98;17.88;;;17.60;94.40;;;;;;5032199;28;20033;-46
2023/09/06 02:10:59;;;;;;;20.05;17.98;;;17.70;94.40;;;;;;5032353;28;20018;-43
2023/09/06 02:13:26;;;;;;;20.45;18.63;;;17.60;94.40;;;;;;5032331;28;20091;-45
2023/09/06 02:15:53;;;;;;;23.88;21.52;;;17.70;94.40;;;;;;5032328;28;20068;-42
2023/09/06 02:18:20;;;;;;;23.23;20.80;;;17.60;94.50;;;;;;5032515;28;20029;-47
2023/09/06 02:20:49;;;;;;;21.13;19.20;;;17.70;94.70;;;;;;5044637;28;20033;-48
2023/09/06 02:23:18;;;;;;;22.80;20.50;;;17.70;94.60;;;;;;5051996;28;20021;-46
2023/09/06 02:25:45;;;;;;;;;;;17.70;94.70;;;;;;5052620;28;20112;-48
2023/09/06 02:28:17;;;;;;;19.80;17.90;;;17.70;94.90;;;;;;5050893;28;19920;-43
2023/09/06 02:30:43;;;;;;;19.92;18.02;;;17.80;94.90;;;;;;5035828;28;20087;-43
2023/09/06 02:33:13;;;;;;;18.83;17.13;;;17.70;94.80;;;;;;5036116;28;20033;-43
2023/09/06 02:35:41;;;;;;;19.08;17.27;;;17.70;94.80;;;;;;5036160;28;20085;-46
2023/09/06 02:38:09;;;;;;;18.08;16.38;;;17.70;94.80;;;;;;5035862;28;20058;-45
2023/09/06 02:40:36;;;;;;;19.88;18.08;;;17.80;94.90;;;;;;5018212;28;20036;-48
2023/09/06 02:43:04;;;;;;;22.33;20.33;;;17.70;94.90;;;;;;5035282;28;20029;-45
2023/09/06 02:45:37;;;;;;;21.00;19.00;;;17.80;95.20;;;;;;5035857;28;20021;-47
2023/09/06 02:48:07;;;;;;;17.80;16.13;;;17.80;95.10;;;;;;5018481;28;20044;-43
2023/09/06 02:50:34;;;;;;;17.27;15.70;;;17.80;95.00;;;;;;5018028;28;20053;-46
2023/09/06 02:53:01;;;;;;;17.70;15.82;;;17.70;95.00;;;;;;5017637;28;20128;-44
2023/09/06 02:55:28;;;;;;;19.10;17.20;;;17.70;95.00;;;;;;5035711;28;20061;-43
2023/09/06 02:57:55;;;;;;;17.52;15.68;;;17.70;95.00;;;;;;5035649;28;20030;-44
2023/09/06 03:00:25;;;;;;;19.00;17.20;;;17.60;95.00;;;;;;5035140;28;20053;-47
2023/09/06 03:02:52;;;;;;;;;;;17.60;94.90;;;;;;5035304;28;20032;-48
2023/09/06 03:05:20;;;;;;;18.33;14.27;;;17.50;94.90;;;;;;5035377;28;19932;-45
2023/09/06 03:07:48;;;;;;;17.10;15.50;;;17.50;94.90;;;;;;5035482;28;20068;-47
2023/09/06 03:10:16;;;;;;;15.88;14.38;;;17.40;94.90;;;;;;5027027;28;20119;-45
2023/09/06 03:12:45;;;;;;;18.48;16.45;;;17.50;95.00;;;;;;5037495;28;20668;-46
2023/09/06 03:15:13;;;;;;;14.70;13.30;;;17.50;94.90;;;;;;5055700;28;20362;-43
2023/09/06 03:17:42;;;;;;;16.98;15.50;;;17.40;94.90;;;;;;5020527;28;20284;-48
2023/09/06 03:20:18;;;;;;;16.92;15.32;;;17.40;94.80;;;;;;5017407;28;20033;-45
2023/09/06 03:22:51;;;;;;;18.00;16.25;;;17.40;94.80;;;;;;5034715;28;20108;-43
2023/09/06 03:25:20;;;;;;;16.50;15.05;;;17.30;94.70;;;;;;5035000;28;20113;-45
2023/09/06 03:27:47;;;;;;;18.15;16.48;;;17.30;94.70;;;;;;5035148;28;20029;-44
2023/09/06 03:30:15;;;;;;;16.55;14.95;;;17.30;94.70;;;;;;5034546;28;20021;-44
2023/09/06 03:32:42;;;;;;;14.88;13.38;;;17.20;94.70;;;;;;5034623;28;20026;-46
2023/09/06 03:35:09;;;;;;;14.55;13.15;;;17.20;94.70;;;;;;5034919;28;20470;-43
2023/09/06 03:37:36;;;;;;;16.00;14.60;;;17.20;94.60;;;;;;5034944;28;20025;-43
2023/09/06 03:40:25;;;;;;;14.52;13.23;;;17.10;94.60;;;;;;5016098;28;20418;-45
2023/09/06 03:42:54;;;;;;;14.43;13.13;;;17.10;94.60;;;;;;5034300;28;20335;-43
2023/09/06 03:45:21;;;;;;;13.13;11.85;;;17.00;94.60;;;;;;5034761;28;20040;-46
2023/09/06 03:47:51;;;;;;;15.25;13.85;;;17.00;94.60;;;;;;5050175;28;20048;-47
2023/09/06 03:50:19;;;;;;;14.18;12.77;;;17.00;94.50;;;;;;5043823;28;20033;-45
2023/09/06 03:52:45;;;;;;;16.35;14.77;;;16.90;94.50;;;;;;5034265;28;20099;-45
2023/09/06 03:55:12;;;;;;;15.45;13.95;;;16.90;94.50;;;;;;5034675;28;20026;-45
2023/09/06 03:57:39;;;;;;;15.65;14.15;;;16.90;94.40;;;;;;5018523;28;20524;-43
2023/09/06 04:02:53;;;;;;;14.65;13.35;;;16.90;94.40;;;;;;5014230;28;20033;-47
2023/09/06 04:05:22;;;;;;;15.82;14.50;;;16.80;94.40;;;;;;5014623;28;20026;-46
2023/09/06 04:07:55;;;;;;;15.80;14.20;;;16.80;94.30;;;;;;5014271;28;20026;-47
2023/09/06 04:10:35;;;;;;;15.32;13.73;;;16.80;94.40;;;;;;5014294;28;20022;-43
2023/09/06 04:13:03;;;;;;;14.45;12.98;;;16.80;94.40;;;;;;5013986;28;20072;-45
2023/09/06 04:15:30;;;;;;;15.88;14.27;;;16.70;94.40;;;;;;5014147;28;20025;-46
2023/09/06 04:17:58;;;;;;;15.63;14.13;;;16.70;94.40;;;;;;5014433;28;20029;-44
2023/09/06 04:20:27;;;;;;;15.25;13.85;;;16.70;94.40;;;;;;5013183;28;20033;-45
2023/09/06 04:22:57;;;;;;;16.00;14.43;;;16.70;94.40;;;;;;5033966;28;20450;-45
2023/09/06 04:25:23;;;;;;;16.52;14.82;;;16.70;94.40;;;;;;5014296;28;20072;-43
2023/09/06 04:27:56;;;;;;;15.77;14.27;;;16.70;94.40;;;;;;4996565;28;20026;-46
2023/09/06 04:30:24;;;;;;;16.42;14.82;;;16.70;94.40;;;;;;5014178;28;20060;-47
2023/09/06 04:32:53;;;;;;;16.63;15.07;;;16.70;94.40;;;;;;5014036;28;20822;-47
2023/09/06 04:35:24;;;;;;;17.42;15.75;;;16.60;94.40;;;;;;5013860;28;20038;-46
2023/09/06 04:37:50;;;;;;;15.88;14.40;;;16.60;94.30;;;;;;5013089;28;20040;-43
2023/09/06 04:40:19;;;;;;;16.63;14.88;;;16.60;94.40;;;;;;5013924;28;20104;-42
2023/09/06 04:42:49;;;;;;;16.17;14.57;;;16.60;94.40;;;;;;5013428;28;20041;-44
2023/09/06 04:45:15;;;;;;;16.63;15.02;;;16.60;94.40;;;;;;5013696;28;20045;-47
2023/09/06 04:47:43;;;;;;;16.92;15.32;;;16.60;94.40;;;;;;5013718;28;20139;-43
2023/09/06 04:50:13;;;;;;;15.68;14.07;;;16.50;94.40;;;;;;5012344;28;20085;-46
2023/09/06 04:52:46;;;;;;;;;;;16.50;94.30;;;;;;5012444;28;20022;-46
2023/09/06 04:55:19;;;;;;;16.90;15.23;;;16.50;94.30;;;;;;5012246;28;19923;-42
2023/09/06 04:57:49;;;;;;;15.68;14.18;;;16.50;94.30;;;;;;5012230;28;20030;-44
2023/09/06 05:00:36;;;;;;;16.17;13.80;;;16.50;94.30;;;;;;5012120;28;20025;-44
2023/09/06 05:03:08;;;;;;;14.60;13.30;;;16.50;94.30;;;;;;4998698;28;20026;-47
2023/09/06 05:05:35;;;;;;;13.85;12.55;;;16.50;94.30;;;;;;5012985;28;20038;-45
2023/09/06 05:08:03;;;;;;;14.82;13.07;;;16.50;94.30;;;;;;5012825;28;20030;-44
2023/09/06 05:10:30;;;;;;;15.25;13.85;;;16.40;94.30;;;;;;4995300;28;20022;-44
2023/09/06 05:12:58;;;;;;;16.17;14.65;;;16.40;94.30;;;;;;4995174;28;20014;-44
2023/09/06 05:15:24;;;;;;;15.80;14.35;;;16.40;94.20;;;;;;5012940;28;20337;-44
2023/09/06 05:17:51;;;;;;;15.98;14.43;;;16.40;94.30;;;;;;5013505;28;20099;-43
2023/09/06 05:20:37;;;;;;;16.25;14.68;;;16.40;94.30;;;;;;5013343;28;20030;-42
2023/09/06 05:23:21;;;;;;;14.70;13.30;;;16.40;94.30;;;;;;5012806;28;20444;-43
2023/09/06 05:25:49;;;;;;;15.20;13.65;;;16.40;94.30;;;;;;5012302;28;20534;-46
2023/09/06 05:28:18;;;;;;;18.58;14.75;;;16.40;94.30;;;;;;5012513;28;20113;-45
2023/09/06 05:30:46;;;;;;;15.20;13.80;;;16.40;94.30;;;;;;5012995;28;20313;-43
2023/09/06 05:33:15;;;;;;;15.02;13.63;;;16.50;94.30;;;;;;4995210;28;20025;-45
2023/09/06 05:35:46;;;;;;;14.27;12.93;;;16.50;94.30;;;;;;4995570;28;20347;-44
2023/09/06 05:38:12;;;;;;;15.13;13.70;;;16.50;94.40;;;;;;4995218;28;20121;-46
2023/09/06 05:40:40;;;;;;;14.70;13.23;;;16.50;94.40;;;;;;5013226;28;20057;-46
2023/09/06 05:43:07;;;;;;;15.32;13.75;;;16.50;94.40;;;;;;5012312;28;20042;-42
2023/09/06 05:45:34;;;;;;;13.98;12.77;;;16.50;94.40;;;;;;5012564;28;20068;-43
2023/09/06 05:48:03;;;;;;;15.40;13.98;;;16.60;94.50;;;;;;5012469;28;20048;-42
2023/09/06 05:50:30;;;;;;;13.43;12.13;;;16.60;94.50;;;;;;5024468;28;20056;-46
2023/09/06 05:52:57;;;;;;;14.73;13.27;;;16.60;94.60;;;;;;5032809;28;20037;-48
2023/09/06 05:55:27;;;;;;;13.40;12.10;;;16.70;94.60;;;;;;5032478;28;20116;-46
2023/09/06 05:57:53;;;;;;;14.95;13.45;;;16.70;94.70;;;;;;5014904;28;20029;-45
2023/09/06 06:00:21;;;;;;;15.43;13.80;;;16.70;94.80;;;;;;5032625;28;20021;-46
2023/09/06 06:02:51;;;;;;;15.10;13.70;;;16.80;94.80;;;;;;5031626;28;20032;-44
2023/09/06 06:05:18;;;;;;;15.27;13.88;;;16.80;94.80;;;;;;5032472;28;20474;-46
2023/09/06 06:07:45;;;;;;;14.93;13.52;;;16.90;94.90;;;;;;5032339;28;20084;-44
2023/09/06 06:10:13;;;;;;;17.25;15.50;;;16.90;95.10;;;;;;5031889;28;20022;-45
2023/09/06 06:12:41;;;;;;;16.48;14.90;;;17.00;95.10;;;;;;5031492;28;20033;-45
2023/09/06 06:15:12;;;;;;;20.50;16.20;;;17.10;95.20;;;;;;5031753;28;20026;-43
2023/09/06 06:17:39;;;;;;;19.42;15.45;;;17.20;95.20;;;;;;5031443;28;20029;-44
2023/09/06 06:20:07;;;;;;;18.02;16.33;;;17.30;95.30;;;;;;5031335;28;20466;-48
2023/09/06 06:22:40;;;;;;;18.55;16.73;;;17.40;95.40;;;;;;5030905;28;20033;-50
2023/09/06 06:25:09;;;;;;;15.90;14.15;;;17.50;95.60;;;;;;5032243;28;20040;-50
2023/09/06 06:27:39;;;;;;;17.90;16.20;;;17.50;95.50;;;;;;5031928;28;20061;-48
2023/09/06 06:30:07;;;;;;;18.20;16.48;;;17.60;95.50;;;;;;5032133;28;20030;-48
2023/09/06 06:32:37;;;;;;;16.92;14.93;;;17.70;95.50;;;;;;5031452;28;20044;-45
2023/09/06 06:35:06;;;;;;;16.40;14.82;;;17.70;95.50;;;;;;5014580;28;20036;-45
2023/09/06 06:37:33;;;;;;;15.65;14.25;;;17.80;95.60;;;;;;5031928;28;20466;-45
2023/09/06 06:40:01;;;;;;;15.65;14.13;;;17.90;95.70;;;;;;5032045;28;20033;-47
2023/09/06 06:42:27;;;;;;;15.52;14.02;;;17.90;95.60;;;;;;5032032;28;20026;-46
2023/09/06 06:44:53;;;;;;;15.52;14.02;;;17.90;95.70;;;;;;5014511;28;20032;-43
2023/09/06 06:47:19;;;;;;;14.63;13.13;;;17.90;95.70;;;;;;5014324;28;20370;-47
2023/09/06 06:49:46;;;;;;;16.88;15.27;;;18.00;95.70;;;;;;5014379;28;20045;-46
2023/09/06 06:52:13;;;;;;;16.48;14.88;;;18.00;95.70;;;;;;5031751;28;20025;-46
2023/09/06 06:54:43;;;;;;;13.70;11.93;;;18.10;95.70;;;;;;5014555;28;20032;-47
2023/09/06 06:57:10;;;;;;;15.80;13.30;;;18.10;95.70;;;;;;5014494;28;20030;-44
2023/09/06 06:59:36;;;;;;;15.80;10.98;;;18.20;95.80;;;;;;5031350;28;20030;-44
2023/09/06 07:02:03;;;;;;;13.65;12.10;;;18.20;95.80;;;;;;5030706;28;20045;-47
2023/09/06 07:04:31;;;;;;;15.07;13.35;;;18.30;95.80;;;;;;5031410;28;20103;-46
2023/09/06 07:06:58;;;;;;;15.07;13.57;;;18.30;95.90;;;;;;5031666;28;20101;-47
2023/09/06 07:09:29;;;;;;;13.32;11.85;;;18.40;96.00;;;;;;5031755;28;20112;-49
2023/09/06 07:11:56;;;;;;;13.45;12.05;;;18.40;96.00;;;;;;5031961;28;20324;-47
2023/09/06 07:14:23;;;;;;;15.82;11.90;;;18.60;96.00;;;;;;5032446;28;20025;-45
2023/09/06 07:16:49;;;;;;;10.27;9.35;;;18.70;96.00;;;;;;5034829;28;20354;-46
2023/09/06 07:19:16;;;;;;;9.48;8.57;;;18.70;95.90;;;;;;5017616;28;20095;-49
2023/09/06 07:21:44;;;;;;;8.73;7.75;;;18.70;95.80;;;;;;5034775;28;20033;-45
2023/09/06 07:24:13;;;;;;;13.60;9.68;;;18.80;95.80;;;;;;5051415;28;20044;-46
2023/09/06 07:26:41;;;;;;;16.48;8.70;;;18.90;95.70;;;;;;5054374;28;20025;-46
2023/09/06 07:29:07;;;;;;;15.57;7.53;;;18.90;95.60;;;;;;5052329;28;20308;-51
2023/09/06 07:31:36;;;;;;;8.63;7.40;;;19.10;95.40;;;;;;5034467;28;20033;-49
2023/09/06 07:34:03;;;;;;;7.13;5.30;;;19.20;95.20;;;;;;5034435;28;20026;-47
2023/09/06 07:36:31;;;;;;;6.63;6.03;;;19.40;95.00;;;;;;5046927;28;20071;-49
2023/09/06 07:38:57;;;;;;;10.73;5.20;;;19.50;94.80;;;;;;5055064;28;20025;-51
2023/09/06 07:41:27;;;;;;;7.30;5.30;;;19.80;94.30;;;;;;5054063;28;20029;-45
2023/09/06 07:43:54;;;;;;;7.10;4.53;;;20.10;93.80;;;;;;5055018;28;20032;-46
2023/09/06 07:46:25;;;;;;;6.55;4.80;;;20.40;93.20;;;;;;5035247;28;20026;-45
2023/09/06 07:48:54;;;;;;;5.72;4.00;;;20.90;93.00;;;;;;5017664;28;20043;-45
2023/09/06 07:51:22;;;;;;;6.28;3.58;;;21.20;91.70;;;;;;5050870;28;20041;-45
2023/09/06 07:53:48;;;;;;;6.22;5.13;;;21.50;91.00;;;;;;5033982;28;20029;-47
2023/09/06 07:56:15;;;;;;;7.50;4.13;;;21.90;89.10;;;;;;5034970;28;20021;-51
2023/09/06 07:58:48;;;;;;;5.47;3.75;;;22.20;89.50;;;;;;5017516;28;20036;-52
2023/09/06 08:01:15;;;;;;;5.07;3.60;;;22.60;87.70;;;;;;5034109;28;20037;-50
2023/09/06 08:03:44;;;;;;;5.65;3.50;;;22.90;87.20;;;;;;5034687;28;20025;-49
2023/09/06 08:06:11;;;;;;;6.32;3.03;;;23.10;83.20;;;;;;5016905;28;20049;-54
2023/09/06 08:08:38;;;;;;;4.30;3.00;;;23.40;82.20;;;;;;5034625;28;20478;-49
2023/09/06 08:11:05;;;;;;;4.15;2.60;;;23.70;80.50;;;;;;5034063;28;20034;-50
2023/09/06 08:13:33;;;;;;;5.50;2.85;;;24.00;80.20;;;;;;5046293;28;20050;-54
2023/09/06 08:15:58;;;;;;;6.63;2.92;;;24.30;79.00;;;;;;5036310;28;20347;-51
2023/09/06 08:18:28;;;;;;;6.38;3.13;;;24.40;77.50;;;;;;5036749;28;20036;-55
2023/09/06 08:20:54;;;;;;;6.22;2.70;;;24.70;77.10;;;;;;5040557;28;20029;-51
2023/09/06 08:23:25;;;;;;;3.42;2.45;;;24.90;76.00;;;;;;5032897;28;20037;-51
2023/09/06 08:25:52;;;;;;;3.72;2.63;;;25.20;75.00;;;;;;5016090;28;20055;-54
2023/09/06 08:28:18;;;;;;;6.10;2.83;;;25.40;75.80;;;;;;5046371;28;20025;-55
2023/09/06 08:30:46;;;;;;;3.75;2.55;;;25.50;75.90;;;;;;5053870;28;20021;-51
2023/09/06 08:33:14;;;;;;;5.93;2.20;;;25.60;72.20;;;;;;5054103;28;20025;-50
2023/09/06 08:35:43;;;;;;;5.65;2.45;;;25.90;73.60;;;;;;5053607;28;20017;-55
2023/09/06 08:38:09;;;;;;;4.85;2.20;;;26.00;74.20;;;;;;5018766;28;20030;-55
2023/09/06 08:40:36;;;;;;;6.88;2.38;;;26.20;73.50;;;;;;5033238;28;20033;-52
2023/09/06 08:43:05;;;;;;;4.05;2.50;;;26.40;73.10;;;;;;5033355;28;20344;-53
2023/09/06 08:45:34;;;;;;;3.13;1.95;;;26.40;71.50;;;;;;5033361;28;20374;-55
2023/09/06 08:48:01;;;;;;;6.17;2.77;;;26.50;71.30;;;;;;5033068;28;20510;-56
2023/09/06 08:50:31;;;;;;;6.78;2.63;;;26.60;70.60;;;;;;5032644;28;20372;-50
2023/09/06 08:52:59;;;;;;;3.58;2.42;;;26.60;70.90;;;;;;5015307;28;20566;-53
2023/09/06 08:55:28;;;;;;;4.38;2.33;;;26.80;70.10;;;;;;5033134;28;20088;-55
2023/09/06 08:57:56;;;;;;;6.63;2.28;;;27.00;71.40;;;;;;5032672;28;20459;-52
2023/09/06 09:00:24;;;;;;;5.22;2.28;;;27.10;69.30;;;;;;5015623;28;20064;-53
2023/09/06 09:02:51;;;;;;;3.00;1.90;;;27.10;70.80;;;;;;5030847;28;20438;-56
2023/09/06 09:05:20;;;;;;;4.85;2.97;;;27.40;71.70;;;;;;5032830;28;20439;-56
2023/09/06 09:07:49;;;;;;;4.40;1.80;;;27.40;70.40;;;;;;5032566;28;20029;-55
2023/09/06 09:10:20;;;;;;;5.95;2.30;;;27.50;69.80;;;;;;5015423;28;20145;-50
2023/09/06 09:12:48;;;;;;;3.30;2.08;;;27.60;71.60;;;;;;5032846;28;20037;-52
2023/09/06 09:15:19;;;;;;;8.82;2.33;;;27.70;68.90;;;;;;5007507;28;20053;-54
2023/09/06 09:17:45;;;;;;;9.55;2.92;;;27.70;66.20;;;;;;5032815;28;20112;-56
2023/09/06 09:20:14;;;;;;;5.93;2.40;;;27.80;67.30;;;;;;5032857;28;20025;-55
2023/09/06 09:22:41;;;;;;;4.32;2.03;;;27.90;68.50;;;;;;5032399;28;20041;-57
2023/09/06 09:25:14;;;;;;;2.92;1.83;;;27.90;69.20;;;;;;5032166;28;20410;-52
2023/09/06 09:27:44;;;;;;;6.00;2.10;;;27.90;68.40;;;;;;5032758;28;20025;-54
2023/09/06 09:30:13;;;;;;;6.40;2.05;;;28.00;66.80;;;;;;5032545;28;20021;-57
2023/09/06 09:32:41;;;;;;;3.97;1.60;;;28.00;65.70;;;;;;5032632;28;20316;-53
2023/09/06 09:35:13;;;;;;;3.60;1.77;;;27.90;64.00;;;;;;5032367;28;20432;-53
2023/09/06 09:37:51;;;;;;;3.70;2.22;;;28.20;65.90;;;;;;5031480;28;20068;-60
2023/09/06 09:40:20;;;;;;;3.00;1.85;;;28.10;64.80;;;;;;5032784;28;20087;-53
2023/09/06 09:42:56;;;;;;;;;;;28.30;61.80;;;;;;5032775;28;20026;-55
2023/09/06 09:45:25;;;;;;;4.13;2.03;;;28.40;66.80;;;;;;5005154;28;19944;-54
2023/09/06 09:47:59;;;;;;;4.50;1.65;;;28.30;62.50;;;;;;5047828;28;20032;-55
2023/09/06 09:50:29;;;;;;;5.90;2.00;;;28.50;63.80;;;;;;5032155;28;20532;-52
2023/09/06 09:52:56;;;;;;;4.70;1.63;;;28.50;62.40;;;;;;5032109;28;20374;-58
2023/09/06 09:55:27;;;;;;;5.22;2.42;;;28.50;61.80;;;;;;5032094;28;20032;-55
2023/09/06 09:57:56;;;;;;;4.18;1.80;;;28.60;63.40;;;;;;5032264;28;20029;-53
2023/09/06 10:00:28;;;;;;;3.95;2.10;;;28.60;64.20;;;;;;5032586;28;20034;-54
2023/09/06 10:02:58;;;;;;;5.93;2.22;;;28.70;60.70;;;;;;5029986;28;20029;-56
2023/09/06 10:05:29;;;;;;;3.13;1.85;;;28.70;61.10;;;;;;5031966;28;20439;-56
2023/09/06 10:07:56;;;;;;;5.57;2.45;;;28.80;63.50;;;;;;5031758;28;20029;-55
2023/09/06 10:10:24;;;;;;;3.45;1.98;;;28.80;59.90;;;;;;5032417;28;20109;-56
2023/09/06 10:12:51;;;;;;;6.85;2.05;;;28.70;60.70;;;;;;5031741;28;20034;-55
2023/09/06 10:15:20;;;;;;;4.57;1.70;;;28.80;61.80;;;;;;5032219;28;20021;-58
2023/09/06 10:17:48;;;;;;;4.47;2.08;;;28.80;61.70;;;;;;5014638;28;20029;-52
2023/09/06 10:20:15;;;;;;;3.67;1.65;;;28.80;62.90;;;;;;5014136;28;20029;-54
2023/09/06 10:22:48;;;;;;;2.72;1.63;;;28.80;62.10;;;;;;5031968;28;20057;-57
2023/09/06 10:25:15;;;;;;;3.70;1.40;;;28.80;60.40;;;;;;5032097;28;20033;-54
2023/09/06 10:27:53;;;;;;;4.47;1.70;;;28.80;60.80;;;;;;5013969;28;20034;-57
2023/09/06 10:30:46;;;;;;;3.15;1.85;;;28.80;59.30;;;;;;5041911;28;20021;-52
2023/09/06 10:33:36;;;;;;;9.68;1.55;;;28.90;62.10;;;;;;5044338;28;20268;-54
2023/09/06 10:36:22;;;;;;;2.45;1.50;;;28.90;63.30;;;;;;5031602;28;20025;-53
2023/09/06 10:38:58;;;;;;;7.05;1.63;;;28.90;59.70;;;;;;5031349;28;20025;-54
2023/09/06 10:41:26;;;;;;;2.75;1.58;;;29.10;62.10;;;;;;5031366;28;20021;-54
2023/09/06 10:44:11;;;;;;;3.65;2.00;;;29.10;61.20;;;;;;5031652;28;20514;-51
2023/09/06 10:46:39;;;;;;;6.38;2.30;;;29.10;58.40;;;;;;5013991;28;20092;-55
2023/09/06 10:49:25;;;;;;;5.65;2.00;;;29.00;59.70;;;;;;5033359;28;20020;-57
2023/09/06 10:52:08;;;;;;;5.95;2.33;;;28.90;60.90;;;;;;5055340;28;20033;-53
2023/09/06 10:54:53;;;;;;;5.55;1.80;;;28.90;60.10;;;;;;5054373;28;20671;-53
2023/09/06 10:57:20;;;;;;;5.00;1.70;;;28.90;59.30;;;;;;5041527;28;20049;-57
2023/09/06 11:00:12;;;;;;;8.02;1.98;;;28.90;60.40;;;;;;5035178;28;20103;-56
2023/09/06 11:02:42;;;;;;;5.40;2.00;;;28.90;61.30;;;;;;5035213;28;20029;-53
2023/09/06 11:05:28;;;;;;;5.25;1.73;;;29.00;60.10;;;;;;5034960;28;20032;-53
2023/09/06 11:07:56;;;;;;;5.90;1.77;;;29.10;59.60;;;;;;5034546;28;20690;-51
2023/09/06 11:10:25;;;;;;;3.83;1.83;;;29.10;59.70;;;;;;5017314;28;20029;-56
2023/09/06 11:12:56;;;;;;;4.07;1.83;;;29.00;59.70;;;;;;5045088;28;20071;-56
2023/09/06 11:15:24;;;;;;;4.18;1.92;;;29.10;62.60;;;;;;5054502;28;20028;-51
2023/09/06 11:17:53;;;;;;;4.90;1.95;;;29.20;58.90;;;;;;5050674;28;20026;-56
2023/09/06 11:20:22;;;;;;;;;;;29.20;60.40;;;;;;5035097;28;20458;-57
2023/09/06 11:22:54;;;;;;;3.72;1.90;;;29.10;62.40;;;;;;5034956;28;19958;-54
2023/09/06 11:25:24;;;;;;;4.30;2.30;;;29.20;61.10;;;;;;5034994;28;20124;-57
2023/09/06 11:27:51;;;;;;;5.55;1.92;;;29.20;61.10;;;;;;5017151;28;20104;-54
2023/09/06 11:30:21;;;;;;;5.10;1.83;;;29.00;60.50;;;;;;5034366;28;20447;-57
2023/09/06 11:32:55;;;;;;;5.85;2.25;;;29.20;62.40;;;;;;5034430;28;20041;-53
2023/09/06 11:35:26;;;;;;;4.30;2.28;;;29.10;61.30;;;;;;5034267;28;20070;-56
2023/09/06 11:37:54;;;;;;;8.70;2.20;;;29.20;60.40;;;;;;5034919;28;20022;-57
2023/09/06 11:40:25;;;;;;;4.87;2.00;;;29.10;59.90;;;;;;5034733;28;20026;-56
2023/09/06 11:42:54;;;;;;;5.28;1.60;;;29.00;61.00;;;;;;5034468;28;20098;-57
2023/09/06 11:45:25;;;;;;;7.13;1.75;;;29.00;63.50;;;;;;5016843;28;20037;-57
2023/09/06 11:48:02;;;;;;;3.97;1.88;;;29.00;61.40;;;;;;5032397;28;20033;-57
2023/09/06 11:50:44;;;;;;;4.53;1.77;;;29.00;61.40;;;;;;5032767;28;20120;-54
2023/09/06 11:53:10;;;;;;;3.55;1.50;;;28.90;60.10;;;;;;5016484;28;20323;-56
2023/09/06 11:55:45;;;;;;;3.28;2.20;;;28.90;60.90;;;;;;5034174;28;20041;-56
2023/09/06 11:58:20;;;;;;;3.42;1.67;;;28.90;61.10;;;;;;5033744;28;20036;-57
2023/09/06 12:00:48;;;;;;;4.57;2.00;;;28.90;60.40;;;;;;5015493;28;20033;-54
2023/09/06 12:03:20;;;;;;;3.03;1.60;;;28.90;61.40;;;;;;5019256;28;20040;-56
2023/09/06 12:05:49;;;;;;;4.72;2.08;;;28.90;60.30;;;;;;5053764;28;20450;-57
2023/09/06 12:08:23;;;;;;;4.57;2.00;;;28.90;62.10;;;;;;5047503;28;20040;-56
2023/09/06 12:11:06;;;;;;;3.60;1.50;;;28.90;60.90;;;;;;5034106;28;20026;-58
2023/09/06 12:13:34;;;;;;;3.30;1.55;;;28.90;61.40;;;;;;5001087;28;20040;-54
2023/09/06 12:16:04;;;;;;;4.25;1.75;;;28.90;61.60;;;;;;5033582;28;20040;-55
2023/09/06 12:18:30;;;;;;;;;;;28.90;61.20;;;;;;5034313;28;20320;-57
2023/09/06 12:20:56;;;;;;;3.60;1.55;;;28.90;60.90;;;;;;5033821;28;19905;-55
2023/09/06 12:23:26;;;;;;;5.35;1.92;;;29.00;61.80;;;;;;5033518;28;20033;-58
2023/09/06 12:25:53;;;;;;;4.18;1.88;;;28.90;60.10;;;;;;5016109;28;20083;-57
2023/09/06 12:28:20;;;;;;;4.72;1.92;;;28.80;59.90;;;;;;5015849;28;20426;-58
2023/09/06 12:30:47;;;;;;;5.90;1.95;;;28.80;62.10;;;;;;5033387;28;20658;-62
2023/09/06 12:33:14;;;;;;;4.18;1.60;;;28.70;60.40;;;;;;5033452;28;20029;-55
2023/09/06 12:35:43;;;;;;;4.70;1.35;;;28.60;61.40;;;;;;5033222;28;20026;-57
2023/09/06 12:38:08;;;;;;;3.65;1.58;;;28.70;62.30;;;;;;5015614;28;20451;-55
2023/09/06 12:40:35;;;;;;;3.83;1.98;;;28.60;60.80;;;;;;5033391;28;20078;-55
2023/09/06 12:43:01;;;;;;;3.78;1.58;;;28.60;63.10;;;;;;5039567;28;20470;-57
2023/09/06 12:45:47;;;;;;;5.60;1.23;;;28.60;61.40;;;;;;5053107;28;20035;-58
2023/09/06 12:48:14;;;;;;;4.00;1.40;;;28.60;59.80;;;;;;5053031;28;20036;-58
2023/09/06 12:50:41;;;;;;;4.05;1.77;;;28.50;60.70;;;;;;5034782;28;20041;-54
2023/09/06 12:53:10;;;;;;;6.20;1.60;;;28.60;61.20;;;;;;5033220;28;20025;-57